Time;durP1;ratioP1;P1;durP2;ratioP2;P2;SDS_P1;SDS_P2;PMS_P1;PMS_P2;Temp;Humidity;BMP_temperature;BMP_pressure;BME280_temperature;BME280_humidity;BME280_pressure;Samples;Min_cycle;Max_cycle;Signal;HPM_P1;HPM_P2
2020/12/21 00:02:26;;;;;;;16.40;8.60;;;;;;;19.49;55.07;101477.56;2377479;74;51180;-77
2020/12/21 00:05:30;;;;;;;13.72;8.00;;;;;;;19.47;55.23;101476.89;2381439;74;50244;-79
2020/12/21 00:08:32;;;;;;;20.43;8.10;;;;;;;19.44;55.09;101487.97;2382093;74;51563;-78
2020/12/21 00:11:38;;;;;;;17.10;8.23;;;;;;;19.43;55.00;101489.82;2354088;74;51371;-79
2020/12/21 00:14:40;;;;;;;24.20;8.78;;;;;;;19.44;54.97;101483.94;2342294;74;51557;-78
2020/12/21 00:17:42;;;;;;;21.50;8.95;;;;;;;19.41;55.02;101490.48;2382156;74;51438;-79
2020/12/21 00:20:45;;;;;;;19.57;8.58;;;;;;;19.40;55.18;101488.82;2381584;74;50276;-78
2020/12/21 00:23:47;;;;;;;14.83;8.10;;;;;;;19.40;54.98;101490.67;2354104;74;50276;-77
2020/12/21 00:26:50;;;;;;;17.95;8.15;;;;;;;19.37;54.94;101487.82;2341142;75;50643;-78
2020/12/21 00:29:53;;;;;;;19.98;8.15;;;;;;;19.39;55.02;101488.97;2339594;75;51535;-78
2020/12/21 00:32:55;;;;;;;16.35;7.80;;;;;;;19.36;55.08;101482.93;2329650;76;51419;-77
2020/12/21 00:35:57;;;;;;;19.67;8.80;;;;;;;19.34;54.95;101494.84;2343491;75;50316;-77
2020/12/21 00:38:59;;;;;;;19.75;8.58;;;;;;;19.31;54.98;101493.33;2369036;75;50245;-78
2020/12/21 00:42:01;;;;;;;15.58;8.05;;;;;;;19.29;55.25;101490.00;2370019;74;50676;-77
2020/12/21 00:45:04;;;;;;;17.90;8.25;;;;;;;19.28;54.88;101493.66;2340668;75;51509;-78
2020/12/21 00:48:07;;;;;;;17.07;8.30;;;;;;;19.26;54.85;101498.86;2329758;76;50241;-77
2020/12/21 00:51:10;;;;;;;19.27;8.33;;;;;;;19.28;55.02;101492.33;2329868;75;50667;-78
2020/12/21 00:54:12;;;;;;;15.72;8.20;;;;;;;19.27;55.03;101496.03;2345622;75;50862;-77
2020/12/21 00:57:14;;;;;;;14.45;7.78;;;;;;;19.24;54.92;101499.53;2332851;75;50647;-77
2020/12/21 01:00:16;;;;;;;18.75;8.43;;;;;;;19.22;54.75;101499.71;2330739;75;51605;-77
2020/12/21 01:03:18;;;;;;;20.08;8.33;;;;;;;19.21;55.18;101513.28;2330460;75;51448;-77
2020/12/21 01:06:21;;;;;;;17.15;7.83;;;;;;;19.23;54.75;101513.96;2331100;75;51492;-77
2020/12/21 01:09:23;;;;;;;17.95;8.50;;;;;;;19.22;54.89;101513.12;2329840;76;50300;-76
2020/12/21 01:12:27;;;;;;;18.48;7.85;;;;;;;19.18;54.76;101517.13;2346510;75;50298;-76
2020/12/21 01:15:29;;;;;;;16.65;7.45;;;;;;;19.20;54.92;101525.03;2370454;75;50703;-77
2020/12/21 01:18:31;;;;;;;26.55;8.43;;;;;;;19.15;54.79;101522.84;2339317;75;51496;-76
2020/12/21 01:21:33;;;;;;;17.60;7.72;;;;;;;19.13;54.76;101516.79;2330485;75;51418;-76
2020/12/21 01:24:38;;;;;;;18.92;8.10;;;;;;;19.13;54.87;101519.47;2329587;75;51432;-77
2020/12/21 01:27:39;;;;;;;19.25;8.33;;;;;;;19.12;54.83;101513.78;2330256;75;22282;-76
2020/12/21 01:30:42;;;;;;;11.15;7.15;;;;;;;19.11;54.80;101507.59;2332049;75;50725;-76
2020/12/21 01:33:45;;;;;;;16.73;7.12;;;;;;;19.09;54.78;101509.59;2371232;74;50721;-76
2020/12/21 01:36:47;;;;;;;18.70;8.38;;;;;;;19.10;54.68;101509.91;2348759;74;51624;-78
2020/12/21 01:39:49;;;;;;;14.53;7.72;;;;;;;19.07;54.60;101506.73;2366636;74;51435;-76
2020/12/21 01:42:52;;;;;;;17.45;7.47;;;;;;;19.08;54.71;101513.77;2381804;74;49952;-77
2020/12/21 01:45:54;;;;;;;17.60;7.67;;;;;;;19.08;54.71;101513.26;2341055;74;51476;-77
2020/12/21 01:48:56;;;;;;;20.62;7.72;;;;;;;19.05;54.62;101510.91;2349225;74;50477;-76
2020/12/21 01:51:58;;;;;;;13.15;6.97;;;;;;;19.01;54.69;101500.67;2340911;74;50239;-76
2020/12/21 01:55:01;;;;;;;16.42;7.22;;;;;;;19.03;54.66;101504.03;2340947;76;50659;-76
2020/12/21 01:58:03;;;;;;;15.13;7.80;;;;;;;19.01;54.65;101510.92;2348150;74;51518;-76
2020/12/21 02:01:05;;;;;;;16.90;7.08;;;;;;;19.02;54.59;101499.69;2341909;74;50306;-76
2020/12/21 02:04:08;;;;;;;15.50;6.97;;;;;;;18.99;54.71;101498.68;2341185;76;50326;-77
2020/12/21 02:07:10;;;;;;;16.27;8.03;;;;;;;18.98;54.61;101497.81;2341354;75;51484;-77
2020/12/21 02:10:12;;;;;;;14.75;6.92;;;;;;;18.98;54.60;101499.66;2375605;74;50657;-77
2020/12/21 02:13:14;;;;;;;17.62;7.55;;;;;;;18.95;54.66;101504.86;2382651;74;51546;-77
2020/12/21 02:16:16;;;;;;;17.57;7.20;;;;;;;18.95;54.63;101498.66;2386634;74;50420;-78
2020/12/21 02:19:19;;;;;;;15.30;7.37;;;;;;;18.94;54.64;101501.84;2367030;74;50770;-77
2020/12/21 02:22:22;;;;;;;18.65;6.90;;;;;;;18.93;54.55;101502.36;2346118;76;50677;-78
2020/12/21 02:25:24;;;;;;;14.05;6.60;;;;;;;18.97;54.61;101504.70;2364603;74;50769;-77
2020/12/21 02:28:27;;;;;;;14.60;6.40;;;;;;;18.93;54.69;101508.20;2347010;74;50662;-80
2020/12/21 02:31:29;;;;;;;15.53;7.05;;;;;;;18.93;55.13;101514.91;2339470;76;50669;-80
2020/12/21 08:22:27;;;;;;;19.17;6.00;;;;;;;19.48;54.19;101592.66;2386200;72;28254;-80
2020/12/21 08:25:29;;;;;;;19.12;6.15;;;;;;;19.47;54.26;101597.20;2340554;74;50271;-80
2020/12/21 08:28:33;;;;;;;25.72;7.35;;;;;;;19.54;53.40;101610.78;2358832;74;50518;-80
2020/12/21 08:31:45;;;;;;;24.90;8.48;;;;;;;19.61;52.74;101621.70;2360939;74;51357;-79
2020/12/21 08:34:50;;;;;;;35.08;8.05;;;;;;;19.67;51.87;101610.31;2355666;75;50566;-81
2020/12/21 08:37:52;;;;;;;27.58;8.83;;;;;;;19.71;51.46;101615.20;2373404;74;51363;-77
2020/12/21 08:40:58;;;;;;;30.37;8.83;;;;;;;19.80;51.29;101606.12;2370597;74;50548;-77
2020/12/21 08:44:00;;;;;;;35.63;8.05;;;;;;;19.87;51.21;101603.61;2370551;74;51396;-77
2020/12/21 08:47:03;;;;;;;28.27;7.92;;;;;;;19.91;51.12;101607.66;2370844;74;50200;-77
2020/12/21 08:50:05;;;;;;;29.42;7.53;;;;;;;19.96;51.02;101612.49;2373575;74;51413;-77
2020/12/21 08:53:07;;;;;;;25.17;7.12;;;;;;;20.00;50.88;101602.59;2357080;74;51535;-76
2020/12/21 08:56:11;;;;;;;30.17;7.42;;;;;;;20.04;50.70;101604.45;2346193;74;50611;-76
2020/12/21 08:59:13;;;;;;;21.52;6.80;;;;;;;20.10;50.48;101611.83;2374975;74;51518;-76
2020/12/21 09:02:15;;;;;;;19.98;7.72;;;;;;;20.10;50.47;101603.77;2361334;74;50016;-77
2020/12/21 09:05:17;;;;;;;15.55;6.85;;;;;;;20.15;50.30;101606.78;2372720;74;50254;-77
2020/12/21 09:08:19;;;;;;;20.50;6.72;;;;;;;20.19;50.15;101608.61;2366578;75;50662;-78
2020/12/21 09:11:22;;;;;;;16.87;6.95;;;;;;;20.19;50.15;101599.20;2368948;73;51483;-76
2020/12/21 09:14:28;;;;;;;19.12;6.90;;;;;;;20.23;50.05;101604.58;2359435;75;51445;-77
2020/12/21 09:17:30;;;;;;;20.25;6.65;;;;;;;20.25;49.96;101614.67;2370729;74;51406;-77
2020/12/21 09:20:32;;;;;;;20.88;7.03;;;;;;;20.28;49.85;101614.83;2366939;75;50290;-76
2020/12/21 09:23:34;;;;;;;21.07;7.12;;;;;;;20.29;49.85;101616.49;2341807;74;50361;-77
2020/12/21 09:26:36;;;;;;;22.17;6.72;;;;;;;20.30;49.81;101623.05;2347194;75;51272;-74
2020/12/21 09:29:39;;;;;;;27.27;8.10;;;;;;;20.43;49.70;101622.53;2341803;75;51551;-78
2020/12/21 09:32:41;;;;;;;29.75;8.55;;;;;;;20.52;49.67;101618.78;2333328;75;52289;-76
2020/12/21 09:35:43;;;;;;;36.48;8.38;;;;;;;20.57;49.68;101620.48;2358917;75;51522;-71
2020/12/21 09:38:49;;;;;;;33.63;8.18;;;;;;;20.62;49.64;101620.80;2352753;75;50374;-76
2020/12/21 09:41:53;;;;;;;21.33;7.22;;;;;;;20.66;49.58;101617.28;2349670;75;51463;-76
2020/12/21 09:44:55;;;;;;;30.80;8.33;;;;;;;20.61;49.80;101618.31;2337265;75;51249;-74
2020/12/21 09:47:58;;;;;;;35.43;7.42;;;;;;;20.68;49.56;101613.92;2356728;75;51427;-74
2020/12/21 09:51:00;;;;;;;26.50;8.10;;;;;;;20.66;49.57;101608.70;2349563;75;50322;-74
2020/12/21 09:54:02;;;;;;;26.20;7.53;;;;;;;20.70;49.58;101607.84;2346690;75;50867;-75
2020/12/21 09:57:04;;;;;;;28.10;7.67;;;;;;;20.72;49.64;101605.82;2341910;74;50470;-76
2020/12/21 10:00:06;;;;;;;28.73;8.45;;;;;;;20.79;49.17;101601.43;2348968;75;51994;-77
2020/12/21 10:03:09;;;;;;;24.85;6.65;;;;;;;20.80;48.86;101593.68;2359375;73;51470;-75
2020/12/21 10:06:11;;;;;;;22.85;6.97;;;;;;;20.86;48.60;101598.38;2364816;75;51507;-79
2020/12/21 10:09:13;;;;;;;20.50;7.58;;;;;;;20.83;48.52;101577.70;2332276;75;50154;-83
2020/12/21 10:12:16;;;;;;;20.75;6.80;;;;;;;20.86;48.55;101583.58;2354724;75;50280;-75
2020/12/21 10:15:18;;;;;;;18.98;7.25;;;;;;;20.86;48.58;101583.58;2356510;75;50511;-77
2020/12/21 10:18:20;;;;;;;15.20;6.45;;;;;;;20.81;48.50;101583.27;2357175;75;51538;-75
2020/12/21 10:21:22;;;;;;;23.18;7.12;;;;;;;20.86;48.27;101581.41;2352144;74;51400;-77
2020/12/21 10:24:24;;;;;;;23.47;6.72;;;;;;;20.94;48.00;101582.70;2359373;74;49904;-76
2020/12/21 10:27:29;;;;;;;19.62;6.83;;;;;;;20.87;48.07;101573.66;2369717;74;50434;-76
2020/12/21 10:30:31;;;;;;;19.60;6.42;;;;;;;20.92;47.95;101562.37;2374073;74;51527;-77
2020/12/21 10:33:33;;;;;;;18.55;6.35;;;;;;;20.92;47.84;101568.59;2372288;74;50626;-76
2020/12/21 10:36:35;;;;;;;18.80;6.03;;;;;;;20.92;47.81;101559.69;2349770;75;50327;-76
2020/12/21 10:39:37;;;;;;;14.38;6.10;;;;;;;20.93;47.71;101562.69;2369784;75;50238;-77
2020/12/21 10:42:39;;;;;;;17.02;6.03;;;;;;;20.92;47.72;101563.72;2369442;75;50545;-74
2020/12/21 10:45:42;;;;;;;18.20;6.15;;;;;;;20.90;47.72;101557.67;2357643;75;51432;-75
2020/12/21 10:48:44;;;;;;;15.40;6.30;;;;;;;20.97;47.49;101559.99;2368930;75;51463;-76
2020/12/21 10:51:46;;;;;;;13.30;5.62;;;;;;;20.98;47.49;101553.07;2358966;74;50709;-76
2020/12/21 10:54:48;;;;;;;12.35;5.53;;;;;;;20.95;47.53;101549.91;2349419;75;50363;-76
2020/12/21 10:57:50;;;;;;;15.83;5.72;;;;;;;21.00;47.38;101548.36;2372170;74;50385;-77
2020/12/21 11:00:53;;;;;;;19.60;6.12;;;;;;;20.94;47.77;101542.86;2367658;75;51489;-76
2020/12/21 11:03:55;;;;;;;17.60;6.20;;;;;;;20.88;48.23;101531.80;2350878;74;52476;-76
2020/12/21 11:06:57;;;;;;;22.25;6.87;;;;;;;20.85;48.32;101542.88;2369996;74;51482;-77
2020/12/21 11:09:59;;;;;;;18.73;6.25;;;;;;;20.81;48.38;101529.47;2353791;74;50237;-76
2020/12/21 11:13:01;;;;;;;18.57;6.08;;;;;;;20.79;48.49;101526.62;2362848;74;50307;-77
2020/12/21 11:16:04;;;;;;;15.83;6.10;;;;;;;20.80;48.52;101524.26;2371182;74;50626;-75
2020/12/21 11:19:07;;;;;;;18.02;6.17;;;;;;;20.78;48.56;101518.21;2365086;74;50184;-75
2020/12/21 11:22:09;;;;;;;15.65;6.25;;;;;;;20.77;48.57;101525.45;2372376;74;51435;-75
2020/12/21 11:25:12;;;;;;;18.42;6.00;;;;;;;20.74;48.59;101523.62;2383245;74;50334;-76
2020/12/21 11:28:14;;;;;;;16.17;5.70;;;;;;;20.77;48.60;101527.31;2370605;74;50690;-76
2020/12/21 11:31:17;;;;;;;15.78;5.78;;;;;;;20.76;48.62;101518.41;2364378;74;50623;-75
2020/12/21 11:34:19;;;;;;;16.80;5.65;;;;;;;20.75;48.67;101521.26;2384160;74;50640;-76
2020/12/21 11:37:21;;;;;;;20.88;5.42;;;;;;;20.76;48.59;101525.13;2381754;74;50732;-76
2020/12/21 11:40:23;;;;;;;14.35;5.97;;;;;;;20.75;48.68;101515.88;2380508;74;51399;-76
2020/12/21 11:43:26;;;;;;;18.85;5.37;;;;;;;20.77;48.67;101517.89;2383774;74;50328;-75
2020/12/21 11:46:32;;;;;;;14.65;5.85;;;;;;;20.76;48.79;101513.54;2380184;74;50156;-74
2020/12/21 11:49:35;;;;;;;14.00;5.10;;;;;;;20.77;48.83;101523.27;2381077;74;50696;-75
2020/12/21 11:52:41;;;;;;;16.05;5.25;;;;;;;20.76;48.92;101522.95;2382015;74;52673;-74
2020/12/21 11:55:41;;;;;;;14.55;6.03;;;;;;;20.78;48.92;101517.73;2381509;74;22448;-74
2020/12/21 11:58:43;;;;;;;14.85;5.75;;;;;;;20.81;48.91;101509.81;2381700;74;50156;-76
2020/12/21 12:01:45;;;;;;;13.58;5.95;;;;;;;20.82;48.97;101512.30;2376738;74;52057;-74
2020/12/21 12:04:47;;;;;;;12.03;6.00;;;;;;;20.86;49.01;101524.92;2382059;74;51376;-75
2020/12/21 12:07:50;;;;;;;14.45;6.12;;;;;;;20.88;49.00;101513.45;2373891;74;51503;-75
2020/12/21 12:10:52;;;;;;;13.70;6.33;;;;;;;20.89;49.04;101507.07;2371029;74;51462;-73
2020/12/21 12:13:54;;;;;;;15.23;6.03;;;;;;;20.91;49.07;101504.19;2373320;74;51376;-73
2020/12/21 12:16:57;;;;;;;14.15;6.90;;;;;;;20.92;49.07;101507.22;2381506;74;50284;-76
2020/12/21 12:19:59;;;;;;;11.43;5.65;;;;;;;20.94;49.05;101501.99;2368975;74;50207;-75
2020/12/21 12:23:01;;;;;;;11.78;5.75;;;;;;;20.96;49.07;101502.66;2354596;74;50644;-75
2020/12/21 12:26:03;;;;;;;13.32;5.40;;;;;;;21.01;49.01;101502.10;2339165;75;51343;-77
2020/12/21 12:29:06;;;;;;;15.60;6.17;;;;;;;21.02;48.96;101493.86;2359071;75;52398;-74
2020/12/21 12:32:08;;;;;;;13.38;6.10;;;;;;;21.06;48.93;101501.06;2333754;75;51315;-76
2020/12/21 12:35:10;;;;;;;11.85;5.40;;;;;;;21.08;48.94;101498.52;2343406;75;50273;-76
2020/12/21 12:38:12;;;;;;;13.20;5.83;;;;;;;21.10;48.86;101493.80;2333524;75;50232;-77
2020/12/21 12:41:14;;;;;;;17.60;5.58;;;;;;;21.14;48.81;101485.36;2345090;75;51441;-76
2020/12/21 12:44:17;;;;;;;14.05;5.53;;;;;;;21.15;48.78;101479.81;2339858;75;50610;-75
2020/12/21 12:47:19;;;;;;;12.15;5.60;;;;;;;21.20;48.72;101483.31;2335508;75;51487;-76
2020/12/21 12:50:21;;;;;;;9.85;5.58;;;;;;;21.20;48.73;101484.66;2331128;75;51439;-75
2020/12/21 12:53:23;;;;;;;12.80;5.60;;;;;;;21.19;48.70;101481.11;2341720;75;51390;-76
2020/12/21 12:56:26;;;;;;;14.60;5.65;;;;;;;21.19;48.72;101483.80;2330623;75;50326;-77
2020/12/21 12:59:28;;;;;;;11.40;5.47;;;;;;;21.21;48.70;101487.67;2336515;75;51452;-77
2020/12/21 13:02:30;;;;;;;11.93;5.22;;;;;;;21.21;48.66;101478.25;2339074;75;50153;-76
2020/12/21 13:05:33;;;;;;;8.93;5.62;;;;;;;21.21;48.64;101479.08;2337687;75;50233;-76
2020/12/21 13:08:35;;;;;;;10.85;4.95;;;;;;;21.21;48.69;101484.98;2329263;75;51499;-75
2020/12/21 13:11:38;;;;;;;10.28;4.30;;;;;;;21.21;48.68;101480.94;2329698;75;51385;-75
2020/12/21 13:14:41;;;;;;;12.90;5.20;;;;;;;21.21;48.68;101469.66;2337599;75;50581;-78
2020/12/21 13:17:43;;;;;;;11.60;4.90;;;;;;;21.22;48.71;101477.22;2316650;75;51195;-77
2020/12/21 13:20:46;;;;;;;11.57;5.17;;;;;;;21.24;48.67;101476.53;2351398;75;50559;-77
2020/12/21 13:23:48;;;;;;;18.70;5.47;;;;;;;21.25;48.49;101469.64;2342193;75;50610;-77
2020/12/21 13:26:51;;;;;;;10.08;5.33;;;;;;;21.25;48.45;101476.89;2344297;75;50652;-75
2020/12/21 13:29:53;;;;;;;12.50;5.00;;;;;;;21.27;48.48;101474.83;2355549;75;51433;-75
2020/12/21 13:32:55;;;;;;;8.88;4.75;;;;;;;21.24;48.55;101465.77;2345473;75;50051;-77
2020/12/21 13:35:57;;;;;;;10.43;5.00;;;;;;;21.27;48.47;101462.71;2343949;75;50294;-75
2020/12/21 13:39:00;;;;;;;11.50;5.15;;;;;;;21.25;48.43;101460.73;2340957;75;50694;-76
2020/12/21 13:42:02;;;;;;;10.55;4.87;;;;;;;21.26;48.42;101456.50;2358753;75;51449;-76
2020/12/21 13:45:06;;;;;;;9.70;4.50;;;;;;;21.27;48.61;101459.53;2354597;75;50621;-76
2020/12/21 13:48:08;;;;;;;19.15;5.75;;;;;;;21.26;48.84;101459.19;2357619;75;50408;-78
2020/12/21 13:51:11;;;;;;;9.78;4.95;;;;;;;21.30;49.04;101461.03;2356811;75;50627;-76
2020/12/21 13:54:13;;;;;;;10.85;5.17;;;;;;;21.29;49.13;101463.38;2356590;75;52517;-78
2020/12/21 13:57:15;;;;;;;12.68;5.05;;;;;;;21.30;49.13;101455.64;2342326;75;50241;-76
2020/12/21 14:00:17;;;;;;;13.30;4.92;;;;;;;21.40;49.04;101456.27;2344693;75;50282;-76
2020/12/21 14:03:20;;;;;;;10.63;4.92;;;;;;;21.52;48.74;101458.81;2356515;75;50638;-76
2020/12/21 14:06:22;;;;;;;11.73;4.72;;;;;;;21.58;48.49;101453.23;2354042;75;50334;-77
2020/12/21 14:09:24;;;;;;;12.90;5.42;;;;;;;21.59;48.48;101446.81;2354427;75;50659;-78
2020/12/21 14:12:26;;;;;;;9.33;5.12;;;;;;;21.59;48.49;101443.29;2343090;75;51429;-76
2020/12/21 14:15:29;;;;;;;16.55;5.00;;;;;;;21.63;48.38;101437.84;2354009;75;51439;-77
2020/12/21 14:18:31;;;;;;;15.98;4.97;;;;;;;21.63;48.35;101439.19;2344534;75;51425;-77
2020/12/21 14:21:34;;;;;;;13.98;5.50;;;;;;;21.64;48.23;101439.53;2327596;75;50694;-77
2020/12/21 14:24:37;;;;;;;13.10;5.37;;;;;;;21.66;48.15;101429.42;2355179;74;50897;-77
2020/12/21 14:27:39;;;;;;;10.50;4.80;;;;;;;21.67;48.10;101429.22;2351678;74;50886;-77
2020/12/21 14:30:41;;;;;;;12.10;4.80;;;;;;;21.67;48.08;101433.26;2356540;75;51459;-78
2020/12/21 14:33:43;;;;;;;9.40;4.53;;;;;;;21.68;48.02;101426.01;2357369;74;51596;-76
2020/12/21 14:36:45;;;;;;;12.85;5.22;;;;;;;21.68;47.99;101425.52;2359555;75;50283;-77
2020/12/21 14:39:48;;;;;;;12.80;4.53;;;;;;;21.67;47.98;101426.52;2364026;75;50227;-75
2020/12/21 14:42:50;;;;;;;20.23;5.35;;;;;;;21.73;47.83;101422.25;2358511;75;50400;-75
2020/12/21 14:45:52;;;;;;;17.87;4.60;;;;;;;21.71;48.04;101407.64;2369043;74;50643;-75
2020/12/21 14:48:54;;;;;;;20.48;6.35;;;;;;;21.70;48.12;101419.41;2370921;74;50649;-76
2020/12/21 14:51:57;;;;;;;31.85;7.47;;;;;;;21.67;48.37;101424.34;2369362;74;52479;-75
2020/12/21 14:54:59;;;;;;;19.35;5.87;;;;;;;21.66;48.40;101431.59;2374589;74;51453;-75
2020/12/21 14:58:01;;;;;;;26.70;6.95;;;;;;;21.64;48.44;101426.06;2373694;74;50183;-75
2020/12/21 15:01:03;;;;;;;25.57;6.03;;;;;;;21.65;48.42;101427.73;2358074;74;50210;-76
2020/12/21 15:04:05;;;;;;;20.92;6.12;;;;;;;21.64;48.43;101424.72;2368678;74;50627;-75
2020/12/21 15:07:08;;;;;;;25.75;6.75;;;;;;;21.64;48.44;101438.19;2370907;74;52368;-74
2020/12/21 15:10:10;;;;;;;22.82;6.85;;;;;;;21.67;48.42;101437.81;2371023;74;51488;-73
2020/12/21 15:13:12;;;;;;;25.50;6.17;;;;;;;21.63;48.44;101417.16;2372183;74;50321;-75
2020/12/21 15:16:14;;;;;;;24.95;6.40;;;;;;;21.63;48.48;101417.64;2356361;74;50558;-74
2020/12/21 15:19:17;;;;;;;20.48;5.80;;;;;;;21.60;48.69;101420.71;2368307;74;50672;-76
2020/12/21 15:22:20;;;;;;;26.48;6.20;;;;;;;21.58;48.74;101421.40;2369755;74;50263;-75
2020/12/21 15:25:22;;;;;;;33.30;6.33;;;;;;;21.56;48.92;101412.18;2348885;74;51534;-75
2020/12/21 15:28:24;;;;;;;24.98;6.08;;;;;;;21.62;49.04;101413.30;2368143;74;52151;-79
2020/12/21 15:31:26;;;;;;;31.30;5.58;;;;;;;21.64;48.99;101409.91;2372378;74;51464;-77
2020/12/21 15:34:28;;;;;;;40.90;7.40;;;;;;;21.63;49.15;101402.34;2364065;74;52277;-76
2020/12/21 15:37:31;;;;;;;29.37;7.03;;;;;;;21.63;49.35;101393.41;2374584;74;50341;-77
2020/12/21 15:40:33;;;;;;;27.82;6.80;;;;;;;21.62;49.51;101391.23;2366155;74;50728;-77
2020/12/21 15:43:35;;;;;;;48.70;8.38;;;;;;;21.59;49.63;101402.38;2373147;74;50661;-78
2020/12/21 15:46:37;;;;;;;63.63;9.20;;;;;;;21.55;50.07;101394.84;2374104;74;50662;-77
2020/12/21 15:49:39;;;;;;;27.65;6.65;;;;;;;21.46;48.87;101395.45;2370519;74;51518;-77
2020/12/21 15:52:42;;;;;;;27.80;6.85;;;;;;;21.38;48.53;101389.64;2372820;74;51272;-77
2020/12/21 15:55:44;;;;;;;37.10;6.55;;;;;;;21.35;48.57;101381.91;2368134;74;50299;-75
2020/12/21 15:58:46;;;;;;;24.85;6.28;;;;;;;21.34;48.80;101380.73;2368320;74;50316;-74
2020/12/21 16:01:50;;;;;;;34.40;6.42;;;;;;;21.33;48.95;101381.25;2370947;74;50332;-75
2020/12/21 16:04:52;;;;;;;29.82;6.75;;;;;;;21.34;49.11;101365.41;2366957;74;51515;-77
2020/12/21 16:07:55;;;;;;;47.55;7.72;;;;;;;21.34;49.27;101357.33;2377285;74;51472;-76
2020/12/21 16:10:57;;;;;;;30.40;6.30;;;;;;;21.26;45.70;101356.08;2375085;74;50356;-76
2020/12/21 16:13:59;;;;;;;22.67;6.22;;;;;;;21.20;46.26;101356.30;2374112;74;51554;-76
2020/12/21 16:17:01;;;;;;;33.23;6.72;;;;;;;21.19;46.33;101351.92;2369927;74;50221;-76
2020/12/21 16:20:04;;;;;;;20.50;6.00;;;;;;;21.23;46.20;101349.72;2369390;74;50312;-76
2020/12/21 16:23:06;;;;;;;19.30;5.40;;;;;;;21.23;46.06;101346.52;2375013;74;51538;-77
2020/12/21 16:26:09;;;;;;;16.37;5.33;;;;;;;21.22;45.98;101341.30;2373015;74;52256;-77
2020/12/21 16:29:12;;;;;;;15.23;5.60;;;;;;;21.26;45.85;101339.92;2380737;74;50380;-75
2020/12/21 16:32:14;;;;;;;16.40;5.53;;;;;;;21.25;45.85;101330.19;2367358;74;50615;-76
2020/12/21 16:35:16;;;;;;;16.15;4.80;;;;;;;21.25;45.77;101331.02;2383892;74;51482;-76
2020/12/21 16:38:18;;;;;;;12.25;4.60;;;;;;;21.27;45.73;101332.16;2383462;74;50285;-76
2020/12/21 16:41:24;;;;;;;12.75;5.00;;;;;;;21.28;45.57;101325.78;2385980;74;51405;-76
2020/12/21 16:44:26;;;;;;;13.40;4.80;;;;;;;21.28;45.55;101323.09;2383420;74;50801;-77
2020/12/21 16:47:29;;;;;;;15.65;4.87;;;;;;;21.28;45.53;101324.44;2384259;74;50274;-77
2020/12/21 16:50:31;;;;;;;11.88;4.50;;;;;;;21.29;45.43;101313.98;2379543;74;51451;-77
2020/12/21 16:53:33;;;;;;;15.23;5.20;;;;;;;21.29;45.42;101317.50;2381538;74;51548;-77
2020/12/21 16:56:36;;;;;;;10.68;5.20;;;;;;;21.30;45.34;101304.91;2383515;74;51437;-76
2020/12/21 16:59:38;;;;;;;12.03;4.87;;;;;;;21.31;45.30;101306.56;2361487;74;50181;-79
2020/12/21 17:02:40;;;;;;;11.00;4.60;;;;;;;21.31;45.24;101305.22;2377951;74;50674;-78
2020/12/21 17:05:42;;;;;;;10.72;4.53;;;;;;;21.33;45.23;101299.14;2386606;74;51673;-79
2020/12/21 17:08:45;;;;;;;14.73;5.35;;;;;;;21.35;45.38;101293.07;2386371;74;52251;-79
2020/12/21 17:11:54;;;;;;;11.25;4.67;;;;;;;21.35;45.50;101285.48;2384134;74;50352;-80
2020/12/21 17:14:56;;;;;;;14.53;4.78;;;;;;;21.36;45.58;101290.69;2347157;74;51496;-78
2020/12/21 17:17:59;;;;;;;14.13;4.70;;;;;;;21.34;45.78;101283.30;2342170;74;50344;-80
2020/12/21 17:21:01;;;;;;;13.80;4.97;;;;;;;21.38;45.86;101277.05;2349075;74;50480;-80
2020/12/21 17:24:03;;;;;;;11.80;4.87;;;;;;;21.38;45.85;101268.98;2351975;74;50576;-79
2020/12/21 17:27:06;;;;;;;16.70;5.28;;;;;;;21.39;45.85;101266.11;2368930;74;50316;-80
2020/12/21 17:30:09;;;;;;;15.68;5.35;;;;;;;21.40;45.92;101257.52;2355138;74;50624;-78
2020/12/21 17:33:11;;;;;;;11.95;4.87;;;;;;;21.41;45.91;101254.66;2358151;74;51207;-79
2020/12/21 17:36:15;;;;;;;17.48;5.03;;;;;;;21.42;46.00;101252.27;2362074;75;51421;-77
2020/12/21 17:39:17;;;;;;;15.23;4.95;;;;;;;21.42;46.08;101252.79;2328775;76;50277;-78
2020/12/21 17:42:19;;;;;;;22.15;6.85;;;;;;;21.44;46.01;101242.67;2329814;76;50875;-79
2020/12/21 17:45:21;;;;;;;46.92;12.23;;;;;;;21.40;45.01;101244.06;2363694;75;50667;-77
2020/12/21 17:48:24;;;;;;;22.13;9.85;;;;;;;21.11;41.57;101240.33;2370608;74;52150;-78
2020/12/21 17:51:26;;;;;;;37.23;10.70;;;;;;;20.85;39.80;101242.12;2371409;73;51435;-79
2020/12/21 17:54:28;;;;;;;23.85;9.75;;;;;;;20.88;40.11;101240.41;2374269;74;51526;-78
2020/12/21 17:57:30;;;;;;;27.45;9.23;;;;;;;20.90;40.77;101227.62;2346792;75;50347;-79
2020/12/21 18:00:32;;;;;;;75.10;13.78;;;;;;;20.92;41.44;101230.13;2330056;75;50758;-79
2020/12/21 18:03:35;;;;;;;44.08;11.05;;;;;;;20.95;41.80;101225.72;2339373;75;50651;-78
2020/12/21 18:06:37;;;;;;;40.17;9.85;;;;;;;20.96;42.09;101227.38;2370547;75;50769;-79
2020/12/21 18:09:39;;;;;;;31.35;10.13;;;;;;;21.00;42.53;101218.77;2370633;75;51550;-80
2020/12/21 18:12:41;;;;;;;33.58;9.75;;;;;;;21.03;42.64;101217.05;2366244;75;50760;-75
2020/12/21 18:15:43;;;;;;;33.98;9.40;;;;;;;21.06;42.68;101209.94;2342248;75;51595;-77
2020/12/21 18:18:46;;;;;;;38.80;9.15;;;;;;;21.08;42.97;101216.48;2367127;75;50124;-77
2020/12/21 18:21:48;;;;;;;28.38;9.15;;;;;;;21.12;43.05;101210.22;2345798;75;50221;-76
2020/12/21 18:24:50;;;;;;;26.73;8.15;;;;;;;21.14;43.19;101206.84;2331360;74;50322;-76
2020/12/21 18:27:52;;;;;;;36.55;8.25;;;;;;;21.15;43.46;101202.63;2355369;74;50630;-77
2020/12/21 18:30:54;;;;;;;24.55;7.83;;;;;;;21.15;43.75;101203.14;2308570;74;51495;-77
2020/12/21 18:33:57;;;;;;;24.02;7.53;;;;;;;21.16;44.01;101195.38;2300445;77;51544;-78
2020/12/21 18:36:59;;;;;;;24.32;8.00;;;;;;;21.19;43.98;101184.23;2299974;77;50076;-78
2020/12/21 18:40:01;;;;;;;29.60;8.23;;;;;;;21.20;43.95;101191.30;2295334;76;50304;-77
2020/12/21 18:43:03;;;;;;;23.62;7.70;;;;;;;21.23;44.19;101179.64;2298963;76;50656;-78
2020/12/21 18:46:05;;;;;;;35.00;8.40;;;;;;;21.22;44.37;101186.06;2272313;75;51451;-76
2020/12/21 18:49:08;;;;;;;24.00;8.18;;;;;;;21.22;44.73;101183.37;2262478;77;51545;-76
2020/12/21 18:52:10;;;;;;;25.37;8.58;;;;;;;21.20;44.98;101173.81;2268134;77;51537;-76
2020/12/21 18:55:12;;;;;;;26.37;7.95;;;;;;;21.22;45.02;101170.40;2268258;77;50582;-77
2020/12/21 18:58:17;;;;;;;19.73;7.60;;;;;;;21.20;45.19;101169.26;2275956;77;51449;-75
2020/12/21 19:01:19;;;;;;;27.00;7.72;;;;;;;21.20;45.10;101157.14;2279347;75;22321;-77
2020/12/21 19:04:21;;;;;;;26.87;8.40;;;;;;;21.25;45.14;101153.38;2284812;76;51461;-76
2020/12/21 19:07:24;;;;;;;22.55;7.70;;;;;;;21.27;45.27;101157.21;2261881;77;51380;-78
2020/12/21 19:10:26;;;;;;;28.70;8.68;;;;;;;21.27;45.25;101145.09;2289557;76;50322;-76
2020/12/21 19:13:29;;;;;;;31.90;7.53;;;;;;;21.28;45.25;101141.41;2297673;76;50333;-78
2020/12/21 19:16:33;;;;;;;21.45;7.25;;;;;;;21.32;45.29;101138.64;2262840;77;51393;-76
2020/12/21 19:19:35;;;;;;;20.35;7.25;;;;;;;21.31;45.40;101127.56;2278606;76;51402;-75
2020/12/21 19:22:37;;;;;;;25.85;7.20;;;;;;;21.32;45.49;101122.48;2272379;77;51415;-75
2020/12/21 19:25:40;;;;;;;21.15;7.53;;;;;;;21.33;45.31;101123.34;2281968;77;51493;-77
2020/12/21 19:28:44;;;;;;;25.08;8.05;;;;;;;21.34;45.19;101120.97;2280090;76;50624;-77
2020/12/21 19:31:46;;;;;;;21.20;8.18;;;;;;;21.36;45.34;101134.55;2298975;77;50415;-77
2020/12/21 19:34:48;;;;;;;23.52;7.40;;;;;;;21.37;45.49;101125.44;2313045;76;51303;-76
2020/12/21 19:37:50;;;;;;;18.23;6.95;;;;;;;21.38;45.49;101118.23;2329920;76;51460;-75
2020/12/21 19:40:52;;;;;;;23.38;6.47;;;;;;;21.39;45.55;101109.14;2307192;75;51557;-75
2020/12/21 19:44:00;;;;;;;25.92;7.17;;;;;;;21.36;45.78;101121.09;2300283;76;51449;-76
2020/12/21 19:47:01;;;;;;;17.82;6.62;;;;;;;21.34;45.83;101115.06;2304290;76;22518;-75